createdAt,value
2023-01-30T00:01:26.945Z,0.50
2023-01-30T00:03:53.672Z,0.60
2023-01-30T00:06:20.791Z,0.60
2023-01-30T00:08:47.492Z,0.70
2023-01-30T00:11:15.460Z,0.80
2023-01-30T00:13:42.700Z,0.70
2023-01-30T00:16:09.825Z,0.70
2023-01-30T00:18:37.256Z,0.70
2023-01-30T00:21:04.778Z,0.70
2023-01-30T00:23:32.399Z,0.70
2023-01-30T00:25:59.361Z,0.80
2023-01-30T00:28:26.164Z,0.80
2023-01-30T00:30:53.437Z,0.90
2023-01-30T00:33:23.957Z,0.90
2023-01-30T00:35:52.748Z,1.00
2023-01-30T00:38:20.136Z,1.00
2023-01-30T00:40:47.317Z,1.00
2023-01-30T00:43:35.234Z,1.00
2023-01-30T00:46:21.468Z,1.00
2023-01-30T00:48:48.153Z,0.90
2023-01-30T00:51:14.889Z,0.80
2023-01-30T00:53:41.545Z,0.80
2023-01-30T00:56:08.310Z,0.70
2023-01-30T00:58:35.223Z,0.80
2023-01-30T01:01:03.105Z,0.80
2023-01-30T01:03:29.784Z,0.80
2023-01-30T01:05:56.465Z,0.90
2023-01-30T01:08:23.279Z,0.90
2023-01-30T01:10:49.992Z,1.00
2023-01-30T01:13:16.741Z,1.00
2023-01-30T01:15:43.423Z,1.10
2023-01-30T01:18:10.135Z,1.00
2023-01-30T01:20:36.771Z,1.10
2023-01-30T01:23:03.581Z,1.10
2023-01-30T01:25:30.321Z,1.00
2023-01-30T01:27:57.077Z,1.10
2023-01-30T01:30:23.808Z,1.10
2023-01-30T01:32:50.502Z,1.00
2023-01-30T01:35:17.581Z,1.10
2023-01-30T01:37:44.493Z,1.00
2023-01-30T01:40:35.101Z,1.00
2023-01-30T01:43:01.879Z,1.10
2023-01-30T01:45:29.791Z,1.00
2023-01-30T01:48:12.465Z,1.10
2023-01-30T01:50:43.938Z,1.10
2023-01-30T01:53:11.748Z,1.10
2023-01-30T01:55:39.173Z,1.10
2023-01-30T01:58:09.481Z,1.20
2023-01-30T02:00:36.213Z,1.10
2023-01-30T02:03:05.663Z,1.10
2023-01-30T02:05:36.981Z,1.10
2023-01-30T02:08:06.767Z,1.10
2023-01-30T02:10:48.440Z,1.10
2023-01-30T02:13:15.390Z,1.10
2023-01-30T02:15:42.106Z,1.20
2023-01-30T02:18:08.903Z,1.20
2023-01-30T02:20:54.342Z,1.20
2023-01-30T02:23:27.063Z,1.30
2023-01-30T02:26:02.938Z,1.20
2023-01-30T02:28:48.701Z,1.30
2023-01-30T02:31:15.424Z,1.30
2023-01-30T02:34:02.331Z,1.30
2023-01-30T02:36:30.148Z,1.30
2023-01-30T02:38:56.795Z,1.20
2023-01-30T02:41:23.508Z,1.20
2023-01-30T02:43:56.355Z,1.20
2023-01-30T02:46:52.827Z,1.20
2023-01-30T02:49:23.174Z,1.20
2023-01-30T02:51:50.576Z,1.10
2023-01-30T02:54:17.436Z,1.10
2023-01-30T02:56:52.520Z,1.10
2023-01-30T02:59:24.149Z,1.10
2023-01-30T03:02:12.870Z,1.20
2023-01-30T03:04:42.599Z,1.20
2023-01-30T03:07:27.529Z,1.10
2023-01-30T03:10:09.758Z,1.10
2023-01-30T03:12:50.448Z,1.20
2023-01-30T03:15:22.732Z,1.20
2023-01-30T03:17:50.033Z,1.30
2023-01-30T03:20:19.211Z,1.30
2023-01-30T03:22:46.032Z,1.20
2023-01-30T03:25:16.253Z,1.20
2023-01-30T03:27:43.926Z,1.20
2023-01-30T03:30:11.278Z,1.20
2023-01-30T03:32:37.932Z,1.20
2023-01-30T03:35:04.993Z,1.30
2023-01-30T03:37:31.671Z,1.20
2023-01-30T03:39:58.917Z,1.20
2023-01-30T03:42:26.846Z,1.20
2023-01-30T03:44:54.152Z,1.20
2023-01-30T03:47:20.909Z,1.20
2023-01-30T03:49:49.969Z,1.20
2023-01-30T03:52:16.663Z,1.20
2023-01-30T03:54:43.859Z,1.20
2023-01-30T03:57:10.825Z,1.30
2023-01-30T03:59:37.419Z,1.30
2023-01-30T04:02:08.685Z,1.30
2023-01-30T04:04:35.684Z,1.30
2023-01-30T04:07:06.337Z,1.30
2023-01-30T04:09:33.839Z,1.30
2023-01-30T04:12:01.692Z,1.30
2023-01-30T04:14:33.027Z,1.40
2023-01-30T04:17:16.847Z,1.30
2023-01-30T04:20:21.849Z,1.30
2023-01-30T04:22:54.057Z,1.30
2023-01-30T04:25:21.303Z,1.30
2023-01-30T04:27:48.509Z,1.40
2023-01-30T04:30:19.296Z,1.30
2023-01-30T04:32:48.013Z,1.30
2023-01-30T04:35:15.490Z,1.40
2023-01-30T04:37:42.485Z,1.40
2023-01-30T04:40:12.488Z,1.30
2023-01-30T04:42:39.251Z,1.30
2023-01-30T04:45:34.854Z,1.30
2023-01-30T04:48:01.722Z,1.30
2023-01-30T04:50:29.728Z,1.30
2023-01-30T04:52:56.378Z,1.40
2023-01-30T04:55:23.088Z,1.30
2023-01-30T04:57:49.789Z,1.40
2023-01-30T05:00:16.784Z,1.40
2023-01-30T05:02:51.177Z,1.30
2023-01-30T05:05:18.100Z,1.30
2023-01-30T05:07:45.725Z,1.30
2023-01-30T05:10:12.388Z,1.30
2023-01-30T05:12:39.201Z,1.40
2023-01-30T05:15:06.769Z,1.30
2023-01-30T05:17:33.895Z,1.30
2023-01-30T05:20:00.636Z,1.30
2023-01-30T05:22:27.506Z,1.30
2023-01-30T05:24:54.231Z,1.30
2023-01-30T05:27:21.222Z,1.40
2023-01-30T05:29:47.889Z,1.30
2023-01-30T05:32:15.196Z,1.30
2023-01-30T05:34:42.124Z,1.30
2023-01-30T05:37:09.065Z,1.30
2023-01-30T05:39:35.746Z,1.30
2023-01-30T05:42:02.479Z,1.40
2023-01-30T05:44:29.395Z,1.40
2023-01-30T05:46:56.247Z,1.40
2023-01-30T05:49:23.371Z,1.40
2023-01-30T05:51:51.569Z,1.40
2023-01-30T05:54:18.326Z,1.40
2023-01-30T05:56:48.296Z,1.40
2023-01-30T05:59:15.374Z,1.40
2023-01-30T06:01:42.211Z,1.40
2023-01-30T06:04:08.976Z,1.40
2023-01-30T06:06:35.704Z,1.40
2023-01-30T06:09:02.435Z,1.50
2023-01-30T06:11:29.495Z,1.40
2023-01-30T06:13:56.177Z,1.40
2023-01-30T06:16:23.095Z,1.50
2023-01-30T06:18:49.831Z,1.50
2023-01-30T06:21:16.821Z,1.40
2023-01-30T06:23:43.571Z,1.50
2023-01-30T06:26:10.275Z,1.40
2023-01-30T06:28:37.407Z,1.40
2023-01-30T06:31:05.876Z,1.40
2023-01-30T06:33:32.586Z,1.40
2023-01-30T06:35:59.237Z,1.40
2023-01-30T06:38:26.288Z,1.50
2023-01-30T06:40:53.011Z,1.40
2023-01-30T06:43:19.686Z,1.50
2023-01-30T06:45:46.448Z,1.40
2023-01-30T06:48:13.097Z,1.50
2023-01-30T06:50:39.729Z,1.50
2023-01-30T06:53:07.115Z,1.50
2023-01-30T06:55:35.532Z,1.50
2023-01-30T06:58:02.769Z,1.50
2023-01-30T07:00:29.662Z,1.50
2023-01-30T07:02:56.366Z,1.60
2023-01-30T07:05:23.054Z,1.50
2023-01-30T07:07:49.868Z,1.60
2023-01-30T07:10:16.673Z,1.60
2023-01-30T07:12:44.783Z,1.60
2023-01-30T07:15:11.489Z,1.70
2023-01-30T07:17:39.525Z,1.70
2023-01-30T07:20:06.447Z,1.70
2023-01-30T07:22:33.101Z,1.70
2023-01-30T07:24:59.707Z,1.70
2023-01-30T07:27:26.602Z,1.70
2023-01-30T07:29:56.151Z,1.70
2023-01-30T07:32:22.857Z,1.70
2023-01-30T07:34:49.528Z,1.70
2023-01-30T07:37:16.218Z,1.80
2023-01-30T07:39:42.905Z,1.80
2023-01-30T07:42:09.562Z,1.80
2023-01-30T07:44:36.248Z,1.80
2023-01-30T07:47:03.313Z,1.80
2023-01-30T07:49:30.100Z,1.90
2023-01-30T07:51:56.775Z,1.90
2023-01-30T07:54:23.486Z,1.90
2023-01-30T07:56:50.102Z,1.90
2023-01-30T07:59:16.756Z,1.90
2023-01-30T08:01:43.374Z,1.90
2023-01-30T08:04:10.926Z,2.00
2023-01-30T08:06:39.482Z,2.00
2023-01-30T08:09:06.848Z,2.00
2023-01-30T08:11:34.065Z,2.00
2023-01-30T08:14:00.765Z,1.90
2023-01-30T08:16:27.493Z,1.90
2023-01-30T08:18:54.275Z,1.90
2023-01-30T08:21:21.035Z,1.90
2023-01-30T08:23:47.841Z,1.90
2023-01-30T08:26:14.607Z,1.90
2023-01-30T08:28:41.340Z,2.00
2023-01-30T08:31:11.966Z,2.00
2023-01-30T08:33:38.683Z,1.90
2023-01-30T08:36:05.735Z,2.00
2023-01-30T08:38:32.445Z,2.00
2023-01-30T08:41:00.929Z,2.10
2023-01-30T08:43:27.813Z,2.10
2023-01-30T08:45:54.687Z,2.20
2023-01-30T08:48:21.437Z,2.20
2023-01-30T08:50:50.853Z,2.30
2023-01-30T08:53:17.506Z,2.40
2023-01-30T08:55:44.671Z,2.50
2023-01-30T08:58:11.350Z,2.50
2023-01-30T09:00:39.736Z,2.50
2023-01-30T09:03:06.363Z,2.60
2023-01-30T09:05:33.041Z,2.60
2023-01-30T09:07:59.660Z,2.60
2023-01-30T09:10:26.437Z,2.60
2023-01-30T09:12:53.188Z,2.50
2023-01-30T09:15:19.821Z,2.60
2023-01-30T09:17:46.507Z,2.50
2023-01-30T09:20:13.331Z,2.60
2023-01-30T09:22:40.083Z,2.60
2023-01-30T09:25:06.932Z,2.50
2023-01-30T09:27:33.626Z,2.60
2023-01-30T09:30:00.273Z,2.50
2023-01-30T09:32:26.973Z,2.60
2023-01-30T09:34:53.920Z,2.60
2023-01-30T09:37:20.652Z,2.60
2023-01-30T09:39:47.307Z,2.70
2023-01-30T09:42:17.032Z,2.70
2023-01-30T09:45:02.744Z,2.60
2023-01-30T09:47:44.899Z,2.60
2023-01-30T09:50:30.576Z,2.60
2023-01-30T09:53:16.586Z,2.70
2023-01-30T09:55:43.440Z,2.70
2023-01-30T09:58:16.235Z,2.70
2023-01-30T10:00:43.074Z,2.80
2023-01-30T10:03:19.120Z,2.90
2023-01-30T10:05:50.937Z,3.10
2023-01-30T10:08:53.114Z,3.20
2023-01-30T10:11:25.025Z,3.40
2023-01-30T10:14:06.755Z,3.60
2023-01-30T10:16:44.230Z,3.70
2023-01-30T10:19:33.583Z,3.90
2023-01-30T10:22:25.903Z,4.00
2023-01-30T10:24:58.638Z,4.10
2023-01-30T10:27:25.642Z,4.20
2023-01-30T10:29:56.415Z,4.20
2023-01-30T10:32:41.804Z,4.20
2023-01-30T10:35:20.243Z,4.20
2023-01-30T10:37:58.742Z,4.40
2023-01-30T10:40:32.190Z,4.60
2023-01-30T10:43:03.879Z,4.90
2023-01-30T10:45:41.924Z,5.30
2023-01-30T10:48:41.480Z,5.40
2023-01-30T10:51:17.689Z,5.40
2023-01-30T10:53:48.269Z,5.40
2023-01-30T10:56:35.202Z,5.40
2023-01-30T10:59:09.745Z,5.40
2023-01-30T11:01:48.467Z,5.70
2023-01-30T11:04:24.321Z,5.70
2023-01-30T11:06:52.395Z,5.70
2023-01-30T11:09:19.105Z,5.70
2023-01-30T11:11:50.855Z,5.60
2023-01-30T11:14:17.909Z,5.40
2023-01-30T11:16:47.233Z,5.20
2023-01-30T11:19:20.897Z,5.10
2023-01-30T11:21:55.802Z,5.00
2023-01-30T11:24:32.681Z,4.80
2023-01-30T11:27:09.876Z,4.80
2023-01-30T11:29:38.940Z,4.80
2023-01-30T11:32:11.647Z,4.80
2023-01-30T11:34:38.867Z,4.90
2023-01-30T11:37:22.854Z,4.80
2023-01-30T11:39:52.915Z,4.80
2023-01-30T11:42:21.128Z,4.80
2023-01-30T11:45:00.748Z,4.90
2023-01-30T11:47:33.609Z,5.10
2023-01-30T11:50:24.884Z,5.10
2023-01-30T11:52:50.028Z,5.00
2023-01-30T11:55:18.510Z,5.20
2023-01-30T11:57:50.818Z,5.20
2023-01-30T12:00:20.400Z,5.20
2023-01-30T12:02:48.350Z,5.30
2023-01-30T12:05:22.677Z,5.40
2023-01-30T12:07:51.181Z,5.40
2023-01-30T12:10:23.904Z,5.40
2023-01-30T12:12:56.758Z,5.50
2023-01-30T12:15:27.936Z,5.70
2023-01-30T12:17:57.584Z,5.90
2023-01-30T12:20:36.472Z,6.10
2023-01-30T12:23:15.380Z,6.40
2023-01-30T12:25:52.587Z,6.60
2023-01-30T12:28:26.770Z,6.40
2023-01-30T12:30:58.967Z,6.30
2023-01-30T12:33:30.894Z,6.10
2023-01-30T12:36:16.690Z,6.10
2023-01-30T12:38:43.450Z,6.10
2023-01-30T12:41:19.631Z,6.00
2023-01-30T12:43:46.432Z,6.00
2023-01-30T12:46:28.595Z,6.10
2023-01-30T12:49:10.070Z,6.10
2023-01-30T12:51:41.156Z,6.10
2023-01-30T12:54:17.027Z,6.10
2023-01-30T12:56:53.719Z,6.10
2023-01-30T12:59:24.823Z,6.20
2023-01-30T13:01:56.794Z,6.20
2023-01-30T13:04:23.559Z,6.30
2023-01-30T13:07:02.054Z,6.30
2023-01-30T13:09:47.955Z,6.30
2023-01-30T13:12:18.040Z,6.30
2023-01-30T13:15:03.525Z,6.30
2023-01-30T13:18:00.252Z,6.20
2023-01-30T13:20:41.297Z,6.20
2023-01-30T13:23:08.130Z,6.10
2023-01-30T13:25:43.899Z,6.10
2023-01-30T13:28:19.558Z,6.10
2023-01-30T13:30:47.618Z,6.20
2023-01-30T13:33:26.446Z,6.20
2023-01-30T13:36:16.662Z,6.30
2023-01-30T13:39:03.646Z,6.40
2023-01-30T13:41:33.787Z,6.40
2023-01-30T13:44:02.213Z,6.50
2023-01-30T13:46:30.023Z,6.50
2023-01-30T13:49:03.320Z,6.50
2023-01-30T13:51:30.055Z,6.50
2023-01-30T13:53:56.671Z,6.50
2023-01-30T13:56:40.192Z,6.60
2023-01-30T13:59:30.843Z,6.80
2023-01-30T14:02:03.982Z,6.80
2023-01-30T14:04:40.016Z,6.80
2023-01-30T14:07:13.979Z,6.80
2023-01-30T14:09:42.434Z,6.80
2023-01-30T14:12:29.714Z,6.80
2023-01-30T14:15:02.783Z,6.90
2023-01-30T14:17:29.847Z,6.90
2023-01-30T14:20:01.327Z,6.90
2023-01-30T14:22:31.515Z,6.90
2023-01-30T14:25:17.304Z,6.80
2023-01-30T14:27:44.253Z,6.80
2023-01-30T14:30:31.501Z,6.80
2023-01-30T14:33:00.172Z,6.70
2023-01-30T14:35:31.136Z,6.70
2023-01-30T14:38:18.101Z,6.70
2023-01-30T14:41:00.081Z,6.70
2023-01-30T14:43:39.264Z,6.60
2023-01-30T14:46:12.171Z,6.60
2023-01-30T14:48:44.741Z,6.60
2023-01-30T14:51:26.134Z,6.60
2023-01-30T14:53:57.794Z,6.60
2023-01-30T14:56:43.323Z,6.60
2023-01-30T14:59:16.263Z,6.60
2023-01-30T15:02:04.647Z,6.60
2023-01-30T15:04:31.469Z,6.60
2023-01-30T15:07:05.405Z,6.60
2023-01-30T15:09:32.685Z,6.70
2023-01-30T15:12:22.839Z,6.80
2023-01-30T15:14:54.031Z,6.70
2023-01-30T15:17:36.598Z,6.70
2023-01-30T15:20:06.845Z,6.70
2023-01-30T15:23:09.144Z,6.70
2023-01-30T15:26:11.754Z,6.70
2023-01-30T15:28:38.479Z,6.70
2023-01-30T15:31:09.598Z,6.70
2023-01-30T15:33:43.939Z,6.70
2023-01-30T15:36:22.867Z,6.60
2023-01-30T15:38:56.857Z,6.60
2023-01-30T15:41:23.707Z,6.60
2023-01-30T15:44:03.156Z,6.60
2023-01-30T15:46:35.720Z,6.60
2023-01-30T15:49:23.871Z,6.60
2023-01-30T15:51:51.277Z,6.50
2023-01-30T15:54:19.779Z,6.50
2023-01-30T15:56:48.820Z,6.40
2023-01-30T15:59:42.941Z,6.30
2023-01-30T16:02:12.777Z,6.30
2023-01-30T16:04:39.515Z,6.20
2023-01-30T16:07:25.637Z,6.10
2023-01-30T16:10:06.741Z,6.10
2023-01-30T16:12:34.514Z,6.00
2023-01-30T16:15:18.502Z,6.00
2023-01-30T16:17:52.516Z,5.90
2023-01-30T16:20:19.368Z,5.80
2023-01-30T16:22:48.040Z,5.70
2023-01-30T16:25:24.655Z,5.60
2023-01-30T16:27:53.065Z,5.60
2023-01-30T16:30:21.267Z,5.60
2023-01-30T16:32:48.281Z,5.60
2023-01-30T16:35:27.878Z,5.60
2023-01-30T16:37:56.207Z,5.60
2023-01-30T16:40:24.332Z,5.60
2023-01-30T16:43:14.442Z,5.60
2023-01-30T16:45:47.293Z,5.60
2023-01-30T16:48:17.082Z,5.60
2023-01-30T16:50:44.783Z,5.60
2023-01-30T16:53:18.355Z,5.60
2023-01-30T16:56:07.498Z,5.70
2023-01-30T16:58:34.852Z,5.70
2023-01-30T17:01:06.257Z,5.80
2023-01-30T17:03:36.771Z,5.80
2023-01-30T17:06:12.317Z,5.80
2023-01-30T17:08:48.167Z,5.80
2023-01-30T17:11:31.759Z,5.90
2023-01-30T17:14:09.383Z,5.90
2023-01-30T17:16:36.094Z,5.90
2023-01-30T17:19:03.277Z,5.90
2023-01-30T17:21:44.460Z,5.90
2023-01-30T17:24:13.386Z,6.00
2023-01-30T17:26:40.940Z,6.00
2023-01-30T17:29:23.138Z,5.90
2023-01-30T17:31:56.419Z,6.00
2023-01-30T17:34:23.608Z,6.00
2023-01-30T17:36:51.307Z,5.90
2023-01-30T17:39:27.115Z,5.90
2023-01-30T17:41:53.957Z,5.90
2023-01-30T17:44:20.637Z,5.80
2023-01-30T17:46:48.904Z,5.80
2023-01-30T17:49:16.548Z,5.90
2023-01-30T17:51:43.631Z,5.90
2023-01-30T17:54:10.795Z,5.90
2023-01-30T17:56:38.935Z,5.90
2023-01-30T17:59:07.259Z,6.00
2023-01-30T18:01:34.144Z,6.00
2023-01-30T18:04:00.803Z,6.00
2023-01-30T18:06:29.792Z,6.10
2023-01-30T18:08:56.716Z,6.00
2023-01-30T18:11:23.573Z,6.00
2023-01-30T18:13:50.584Z,6.00
2023-01-30T18:16:20.405Z,6.00
2023-01-30T18:18:47.183Z,6.00
2023-01-30T18:21:13.824Z,6.10
2023-01-30T18:23:40.505Z,6.10
2023-01-30T18:26:07.275Z,6.10
2023-01-30T18:28:33.997Z,6.10
2023-01-30T18:31:00.777Z,6.00
2023-01-30T18:33:27.498Z,6.00
2023-01-30T18:35:54.240Z,5.90
2023-01-30T18:38:20.992Z,5.90
2023-01-30T18:40:47.811Z,5.80
2023-01-30T18:43:14.528Z,5.80
2023-01-30T18:45:41.248Z,5.90
2023-01-30T18:48:07.967Z,5.80
2023-01-30T18:50:34.598Z,5.70
2023-01-30T18:53:01.363Z,5.50
2023-01-30T18:55:28.095Z,5.50
2023-01-30T18:57:54.784Z,5.50
2023-01-30T19:00:22.106Z,5.50
2023-01-30T19:02:53.380Z,5.50
2023-01-30T19:05:20.288Z,5.50
2023-01-30T19:07:46.980Z,5.40
2023-01-30T19:10:17.188Z,5.50
2023-01-30T19:13:03.197Z,5.40
2023-01-30T19:15:29.950Z,5.40
2023-01-30T19:17:57.755Z,5.50
2023-01-30T19:20:25.044Z,5.50
2023-01-30T19:22:54.707Z,5.50
2023-01-30T19:25:21.611Z,5.50
2023-01-30T19:27:48.336Z,5.70
2023-01-30T19:30:15.313Z,5.80
2023-01-30T19:32:42.015Z,5.70
2023-01-30T19:35:08.785Z,5.80
2023-01-30T19:37:36.054Z,5.70
2023-01-30T19:40:08.422Z,5.70
2023-01-30T19:42:35.732Z,5.70
2023-01-30T19:45:02.386Z,5.70
2023-01-30T19:47:29.149Z,5.70
2023-01-30T19:49:55.862Z,5.80
2023-01-30T19:52:22.552Z,5.70
2023-01-30T19:54:49.238Z,5.70
2023-01-30T19:57:15.916Z,5.70
2023-01-30T19:59:43.374Z,5.80
2023-01-30T20:02:10.392Z,5.70
2023-01-30T20:04:37.909Z,5.60
2023-01-30T20:07:04.604Z,5.70
2023-01-30T20:09:31.277Z,5.60
2023-01-30T20:11:58.043Z,5.70
2023-01-30T20:14:24.724Z,5.70
2023-01-30T20:16:51.385Z,5.70
2023-01-30T20:19:18.028Z,5.70
2023-01-30T20:21:45.219Z,5.60
2023-01-30T20:24:12.667Z,5.60
2023-01-30T20:26:39.883Z,5.70
2023-01-30T20:29:08.225Z,5.70
2023-01-30T20:31:35.609Z,5.80
2023-01-30T20:34:03.265Z,5.70
2023-01-30T20:36:30.055Z,5.70
2023-01-30T20:39:01.704Z,5.80
2023-01-30T20:41:28.436Z,5.80
2023-01-30T20:43:59.387Z,5.80
2023-01-30T20:46:27.502Z,5.80
2023-01-30T20:48:55.091Z,5.80
2023-01-30T20:51:29.785Z,5.80
2023-01-30T20:54:02.676Z,5.80
2023-01-30T20:56:34.095Z,5.80
2023-01-30T20:59:01.328Z,5.80
2023-01-30T21:01:28.148Z,5.80
2023-01-30T21:03:55.020Z,5.80
2023-01-30T21:08:30.815Z,5.80
2023-01-30T21:11:05.170Z,5.80
2023-01-30T21:13:32.681Z,5.80
2023-01-30T21:16:12.491Z,5.80
2023-01-30T21:18:41.953Z,5.80
2023-01-30T21:21:14.409Z,5.80
2023-01-30T21:23:42.804Z,5.80
2023-01-30T21:26:14.124Z,5.80
2023-01-30T21:28:41.789Z,5.80
2023-01-30T21:31:11.987Z,5.90
2023-01-30T21:33:39.052Z,6.00
2023-01-30T21:36:06.716Z,6.00
2023-01-30T21:38:52.813Z,5.90
2023-01-30T21:41:41.763Z,5.80
2023-01-30T21:44:08.600Z,5.70
2023-01-30T21:46:39.016Z,5.60
2023-01-30T21:49:06.391Z,5.70
2023-01-30T21:51:33.201Z,5.70
2023-01-30T21:54:00.211Z,5.70
2023-01-30T21:56:26.800Z,5.70
2023-01-30T21:58:55.796Z,5.80
2023-01-30T22:01:22.856Z,5.70
2023-01-30T22:03:49.599Z,5.70
2023-01-30T22:06:16.387Z,5.70
2023-01-30T22:08:43.310Z,5.70
2023-01-30T22:11:11.337Z,5.70
2023-01-30T22:13:39.907Z,5.70
2023-01-30T22:16:08.838Z,5.70
2023-01-30T22:18:36.420Z,5.70
2023-01-30T22:21:13.349Z,5.70
2023-01-30T22:23:42.532Z,5.80
2023-01-30T22:26:10.678Z,5.80
2023-01-30T22:28:38.464Z,5.70
2023-01-30T22:31:08.024Z,5.60
2023-01-30T22:33:36.337Z,5.60
2023-01-30T22:36:05.401Z,5.50
2023-01-30T22:38:32.478Z,5.50
2023-01-30T22:41:03.107Z,5.50
2023-01-30T22:43:30.911Z,5.40
2023-01-30T22:46:00.691Z,5.30
2023-01-30T22:48:29.299Z,5.30
2023-01-30T22:51:04.385Z,5.30
2023-01-30T22:53:42.245Z,5.20
2023-01-30T22:56:11.993Z,5.20
2023-01-30T22:58:39.468Z,5.10
2023-01-30T23:01:13.837Z,5.10
2023-01-30T23:03:43.493Z,5.20
2023-01-30T23:06:16.667Z,5.10
2023-01-30T23:08:47.309Z,5.10
2023-01-30T23:11:20.575Z,5.00
2023-01-30T23:13:49.867Z,5.00
2023-01-30T23:16:19.865Z,5.00
2023-01-30T23:18:56.628Z,5.10
2023-01-30T23:21:27.888Z,5.00
2023-01-30T23:23:58.394Z,5.00
2023-01-30T23:26:27.545Z,4.90
2023-01-30T23:28:54.911Z,4.80
2023-01-30T23:31:25.037Z,4.70
2023-01-30T23:33:57.146Z,4.60
2023-01-30T23:36:24.902Z,4.50
2023-01-30T23:38:52.967Z,4.50
2023-01-30T23:41:23.505Z,4.40
2023-01-30T23:43:51.267Z,4.40
2023-01-30T23:46:26.902Z,4.30
2023-01-30T23:48:59.526Z,4.30
2023-01-30T23:51:29.238Z,4.30
2023-01-30T23:53:56.591Z,4.30
2023-01-30T23:56:25.524Z,4.30
2023-01-30T23:58:52.541Z,4.30
